Time;durP1;ratioP1;P1;durP2;ratioP2;P2;SDS_P1;SDS_P2;PMS_P1;PMS_P2;Temp;Humidity;BMP_temperature;BMP_pressure;BME280_temperature;BME280_humidity;BME280_pressure;Samples;Min_cycle;Max_cycle;Signal;HPM_P1;HPM_P2
2022/01/25 00:34:06;;;;;;;142.60;66.50;;;;;;;1.32;57.46;100518.71;221359;1274;139728;-58
2022/01/25 00:39:09;;;;;;;140.90;68.50;;;;;;;1.34;57.50;100517.14;221358;1274;139680;-59
2022/01/25 00:44:13;;;;;;;143.90;63.30;;;;;;;1.33;57.66;100509.61;221375;1275;141138;-60
2022/01/25 00:49:26;;;;;;;129.50;58.70;;;;;;;1.34;57.94;100505.77;221351;1274;141246;-59
2022/01/25 00:54:31;;;;;;;119.20;52.70;;;;;;;1.31;58.05;100501.75;221416;1275;139797;-59
2022/01/25 00:59:34;;;;;;;114.10;51.90;;;;;;;1.24;58.35;100499.13;221107;1276;140604;-57
2022/01/25 01:04:37;;;;;;;104.70;47.40;;;;;;;1.22;58.84;100494.93;221453;1274;139288;-59
2022/01/25 01:09:46;;;;;;;95.00;44.40;;;;;;;1.23;59.28;100492.14;221322;1274;140113;-61
2022/01/25 01:51:21;;;;;;;54.40;27.00;;;;;;;1.40;61.75;100451.21;221361;1276;143268;-62
2022/01/25 01:56:26;;;;;;;55.80;24.60;;;;;;;1.55;62.09;100444.52;221336;1276;140372;-59
2022/01/25 02:01:29;;;;;;;46.70;22.60;;;;;;;1.50;61.82;100442.61;221352;1275;140122;-59
2022/01/25 02:06:33;;;;;;;42.50;21.60;;;;;;;1.40;61.88;100437.05;221343;1276;140093;-59
2022/01/25 02:11:37;;;;;;;45.30;22.90;;;;;;;1.36;62.05;100437.23;221009;1275;139904;-59
2022/01/25 02:27:06;;;;;;;47.10;24.20;;;;;;;1.33;62.63;100423.24;221366;1276;141877;-59
2022/01/25 02:32:10;;;;;;;44.90;22.70;;;;;;;1.34;62.83;100422.03;221213;1275;141866;-61
2022/01/25 02:37:15;;;;;;;45.90;22.20;;;;;;;1.36;62.98;100422.55;221306;1274;140019;-60
2022/01/25 02:42:18;;;;;;;42.90;22.40;;;;;;;1.38;63.27;100421.49;221380;1275;138924;-58
2022/01/25 02:52:42;;;;;;;46.00;23.80;;;;;;;1.41;63.57;100413.26;221291;1276;139616;-59
2022/01/25 02:57:49;;;;;;;46.90;24.00;;;;;;;1.35;63.56;100405.94;221318;1275;139453;-59
2022/01/25 03:02:53;;;;;;;43.80;22.80;;;;;;;1.29;63.83;100402.96;220972;1275;139639;-58
2022/01/25 03:07:57;;;;;;;47.50;23.20;;;;;;;1.26;64.10;100399.49;221364;1275;140354;-59
2022/01/25 03:13:00;;;;;;;47.00;24.20;;;;;;;1.29;64.39;100400.36;221213;1275;140947;-60
2022/01/25 03:18:12;;;;;;;45.10;24.50;;;;;;;1.35;64.46;100402.95;221488;1274;140672;-60
2022/01/25 03:23:19;;;;;;;51.50;27.30;;;;;;;1.46;64.62;100401.55;221348;1276;139611;-60
2022/01/25 03:28:22;;;;;;;45.60;23.70;;;;;;;1.53;64.80;100403.61;221337;1276;140518;-60
2022/01/25 03:33:25;;;;;;;49.60;25.50;;;;;;;1.60;64.94;100398.52;221328;1275;140935;-58
2022/01/25 03:38:28;;;;;;;50.70;26.50;;;;;;;1.61;64.92;100405.84;221332;1275;139418;-56
2022/01/25 03:43:31;;;;;;;43.60;25.30;;;;;;;1.61;64.97;100408.65;221277;1275;140349;-58
2022/01/25 03:53:37;;;;;;;53.90;29.30;;;;;;;1.58;65.25;100397.29;221194;1276;139363;-60
2022/01/25 03:58:40;;;;;;;49.80;25.90;;;;;;;1.59;65.31;100395.55;221309;1276;139916;-60
2022/01/25 04:03:56;;;;;;;45.30;26.10;;;;;;;1.58;65.49;100386.63;221304;1274;141697;-57
2022/01/25 04:09:01;;;;;;;49.50;25.10;;;;;;;1.60;65.72;100375.08;221115;1275;149041;-58
2022/01/25 04:14:05;;;;;;;52.80;27.10;;;;;;;1.56;65.85;100365.65;221255;1274;140450;-59
2022/01/25 04:19:13;;;;;;;56.30;27.50;;;;;;;1.53;65.97;100362.69;221178;1274;140216;-58
2022/01/25 04:29:38;;;;;;;53.90;27.60;;;;;;;1.54;66.35;100359.88;221306;1276;139229;-58
2022/01/25 04:34:45;;;;;;;43.60;25.40;;;;;;;1.53;66.43;100363.39;221344;1276;139860;-60
2022/01/25 04:56:08;;;;;;;46.60;24.20;;;;;;;1.62;66.80;100336.58;221174;1276;140719;-61
2022/01/25 05:01:17;;;;;;;47.90;24.70;;;;;;;1.57;66.83;100333.30;221358;1276;139701;-60
2022/01/25 05:06:21;;;;;;;49.90;22.50;;;;;;;1.56;66.75;100329.98;221214;1276;142990;-59
2022/01/25 05:11:31;;;;;;;46.20;23.40;;;;;;;1.52;66.77;100331.39;220923;1276;139857;-59
2022/01/25 05:16:39;;;;;;;38.60;21.60;;;;;;;1.53;66.91;100332.79;221312;1276;140158;-59
2022/01/25 05:27:07;;;;;;;40.30;22.90;;;;;;;1.55;67.07;100331.38;221234;1277;143281;-60
2022/01/25 05:32:11;;;;;;;38.90;22.20;;;;;;;1.56;67.03;100324.02;221380;1274;139441;-58
2022/01/25 05:37:14;;;;;;;46.40;22.10;;;;;;;1.53;67.00;100317.73;221140;1276;139786;-59
2022/01/25 05:47:46;;;;;;;42.20;22.90;;;;;;;1.47;67.12;100282.63;221052;1277;139570;-59
2022/01/25 05:52:49;;;;;;;37.10;22.10;;;;;;;1.45;67.30;100280.00;220767;1277;140653;-59
2022/01/25 05:57:52;;;;;;;45.30;23.20;;;;;;;1.43;67.31;100281.25;221067;1277;140231;-58
2022/01/25 06:02:56;;;;;;;44.60;23.70;;;;;;;1.42;67.43;100289.45;221012;1276;140371;-59
2022/01/25 06:08:00;;;;;;;42.60;22.60;;;;;;;1.48;67.29;100299.40;221180;1276;140637;-59
2022/01/25 06:13:04;;;;;;;39.50;21.20;;;;;;;1.56;67.37;100303.40;221401;1275;140816;-59
2022/01/25 06:18:07;;;;;;;39.70;22.00;;;;;;;1.60;67.22;100292.70;221405;1276;140713;-57
2022/01/25 06:23:10;;;;;;;39.40;21.60;;;;;;;1.57;67.21;100286.77;221139;1275;140774;-58
2022/01/25 06:28:13;;;;;;;40.70;22.70;;;;;;;1.56;67.19;100286.78;221186;1276;140609;-58
2022/01/25 06:33:16;;;;;;;37.70;21.30;;;;;;;1.57;67.32;100282.05;221205;1275;140516;-56
2022/01/25 06:38:20;;;;;;;36.90;21.10;;;;;;;1.58;67.32;100278.71;221284;1275;141136;-58
2022/01/25 06:43:23;;;;;;;40.30;22.00;;;;;;;1.63;67.48;100276.59;221262;1276;139720;-57
2022/01/25 06:48:27;;;;;;;36.20;21.20;;;;;;;1.70;67.43;100278.30;221345;1275;141561;-58
2022/01/25 06:53:30;;;;;;;41.50;21.80;;;;;;;1.68;67.32;100271.13;221068;1275;141537;-59
2022/01/25 06:58:33;;;;;;;41.50;23.00;;;;;;;1.65;67.49;100273.25;221268;1275;139245;-58
2022/01/25 07:03:36;;;;;;;37.00;20.80;;;;;;;1.66;67.58;100278.14;220934;1275;140353;-56
2022/01/25 07:08:43;;;;;;;40.40;21.70;;;;;;;1.64;67.72;100276.40;221287;1276;139216;-59
2022/01/25 07:13:47;;;;;;;39.70;19.90;;;;;;;1.66;67.81;100272.56;221225;1276;142843;-58
2022/01/25 07:18:51;;;;;;;38.70;22.60;;;;;;;1.70;67.73;100270.95;221376;1275;141042;-58
2022/01/25 07:23:54;;;;;;;38.10;21.90;;;;;;;1.77;67.98;100263.38;221320;1275;139584;-61
2022/01/25 07:28:57;;;;;;;38.20;21.40;;;;;;;1.83;68.04;100256.17;221281;1274;140300;-58
2022/01/25 07:34:00;;;;;;;39.30;21.70;;;;;;;1.84;67.91;100267.54;221310;1276;140911;-57
2022/01/25 07:39:05;;;;;;;37.10;21.20;;;;;;;1.83;67.90;100256.52;221335;1276;139596;-57
2022/01/25 07:44:15;;;;;;;36.80;21.30;;;;;;;1.85;67.82;100251.61;221157;1276;141236;-58
2022/01/25 07:49:20;;;;;;;34.40;20.70;;;;;;;1.89;67.70;100264.88;220584;1275;141707;-58
2022/01/25 07:54:26;;;;;;;36.50;20.10;;;;;;;1.93;68.05;100261.87;221392;1277;139662;-58
2022/01/25 07:59:29;;;;;;;36.20;20.90;;;;;;;1.95;68.04;100266.23;221276;1276;140912;-58
2022/01/25 08:04:32;;;;;;;38.10;22.70;;;;;;;1.99;68.08;100273.20;221480;1275;139803;-57
2022/01/25 08:09:39;;;;;;;38.20;23.00;;;;;;;2.02;67.94;100275.64;221349;1275;139854;-57
2022/01/25 08:14:44;;;;;;;42.30;23.70;;;;;;;2.05;68.03;100268.96;221343;1277;140727;-57
2022/01/25 08:19:54;;;;;;;42.30;23.50;;;;;;;2.14;68.04;100265.91;221301;1275;139205;-61
2022/01/25 08:25:26;;;;;;;41.50;23.90;;;;;;;2.26;68.05;100260.91;221111;1275;141337;-61
2022/01/25 08:30:35;;;;;;;43.20;23.40;;;;;;;2.32;68.06;100253.15;221412;1276;140219;-58
2022/01/25 08:36:01;;;;;;;75.50;47.20;;;;;;;2.43;68.16;100255.16;220641;1276;140846;-60
2022/01/25 08:41:18;;;;;;;45.90;26.40;;;;;;;2.60;68.63;100267.61;221352;1276;140499;-61
2022/01/25 08:46:41;;;;;;;37.40;23.90;;;;;;;2.71;68.14;100260.66;221114;1276;140327;-59
2022/01/25 08:51:58;;;;;;;43.50;26.40;;;;;;;2.73;68.23;100258.71;221048;1276;139504;-61
2022/01/25 08:57:22;;;;;;;41.10;23.30;;;;;;;2.89;68.24;100255.20;221122;1275;142680;-60
2022/01/25 09:02:45;;;;;;;37.40;22.00;;;;;;;2.89;67.96;100256.27;221285;1276;141182;-59
2022/01/25 09:07:49;;;;;;;42.00;26.00;;;;;;;2.83;67.79;100267.19;221081;1276;142374;-59
2022/01/25 09:12:52;;;;;;;36.80;23.30;;;;;;;2.83;67.89;100276.48;221128;1276;141319;-60
2022/01/25 09:17:55;;;;;;;37.60;23.30;;;;;;;2.79;67.82;100267.58;221156;1275;141380;-62
2022/01/25 09:22:58;;;;;;;48.10;25.10;;;;;;;2.77;67.72;100252.17;221114;1277;140407;-60
2022/01/25 09:28:05;;;;;;;48.70;27.80;;;;;;;2.85;68.45;100247.89;221233;1277;140786;-61
2022/01/25 09:33:07;;;;;;;46.60;26.00;;;;;;;2.92;67.94;100244.32;221316;1275;141051;-58
2022/01/25 09:38:11;;;;;;;43.00;24.80;;;;;;;2.92;67.82;100233.80;221187;1276;140851;-58
2022/01/25 09:43:15;;;;;;;38.90;24.20;;;;;;;2.89;67.80;100238.91;221327;1276;141342;-59
2022/01/25 09:48:18;;;;;;;43.60;25.80;;;;;;;2.87;67.87;100228.60;221404;1276;139645;-59
2022/01/25 09:53:21;;;;;;;44.50;27.70;;;;;;;2.87;68.05;100219.14;221129;1275;140678;-60
2022/01/25 09:58:28;;;;;;;43.30;26.40;;;;;;;2.88;67.89;100220.86;221045;1276;140624;-58
2022/01/25 10:03:37;;;;;;;42.20;25.70;;;;;;;2.92;67.92;100225.38;221166;1277;139796;-60
2022/01/25 10:08:41;;;;;;;37.90;22.10;;;;;;;3.00;67.89;100227.55;221144;1277;142301;-58
2022/01/25 10:13:48;;;;;;;33.80;19.70;;;;;;;3.06;67.85;100224.69;221084;1275;140264;-59
2022/01/25 10:18:56;;;;;;;35.80;22.20;;;;;;;3.12;67.74;100219.70;221202;1275;139967;-59
2022/01/25 10:24:15;;;;;;;67.30;39.40;;;;;;;3.19;67.89;100212.95;221158;1276;140930;-59
2022/01/25 10:29:32;;;;;;;37.30;21.80;;;;;;;3.32;67.90;100197.34;221295;1275;140308;-60
2022/01/25 10:34:44;;;;;;;34.90;21.30;;;;;;;3.31;67.66;100189.99;221338;1276;139947;-59
2022/01/25 10:39:51;;;;;;;33.60;20.60;;;;;;;3.22;67.45;100179.59;221204;1276;140077;-57
2022/01/25 10:45:00;;;;;;;30.80;19.10;;;;;;;3.18;67.40;100170.52;221167;1276;141865;-59
2022/01/25 10:50:11;;;;;;;32.60;20.20;;;;;;;3.19;67.66;100169.11;221303;1276;142055;-60
2022/01/25 10:55:14;;;;;;;37.70;23.40;;;;;;;3.16;67.56;100174.58;221330;1275;140751;-61
2022/01/25 11:00:17;;;;;;;38.50;23.00;;;;;;;3.14;67.71;100174.98;221366;1275;139411;-59
2022/01/25 11:05:21;;;;;;;44.40;26.80;;;;;;;3.11;67.76;100170.98;221351;1277;141276;-58
2022/01/25 11:10:24;;;;;;;51.70;27.50;;;;;;;3.08;67.73;100164.34;221221;1276;139956;-60
2022/01/25 11:15:27;;;;;;;43.40;25.60;;;;;;;3.01;67.71;100154.62;221228;1276;141065;-61
2022/01/25 11:20:30;;;;;;;44.20;26.50;;;;;;;3.01;67.79;100148.48;221138;1276;140964;-61
2022/01/25 11:25:36;;;;;;;45.50;26.50;;;;;;;3.01;67.89;100138.14;221421;1276;141531;-58
2022/01/25 11:30:40;;;;;;;45.70;26.90;;;;;;;3.00;68.01;100127.45;221373;1276;140184;-57
2022/01/25 11:35:43;;;;;;;44.80;25.30;;;;;;;2.98;68.08;100119.60;221362;1274;141981;-57
2022/01/25 11:40:47;;;;;;;42.90;23.10;;;;;;;2.94;68.08;100112.83;221280;1276;140071;-58
2022/01/25 11:45:50;;;;;;;40.50;24.30;;;;;;;2.92;68.19;100106.20;221282;1276;140905;-56
2022/01/25 11:50:54;;;;;;;44.50;26.30;;;;;;;2.96;68.25;100104.39;221369;1276;140488;-58
2022/01/25 11:55:57;;;;;;;43.80;25.70;;;;;;;3.00;68.42;100102.22;221139;1276;139295;-58
2022/01/25 12:01:24;;;;;;;50.40;27.70;;;;;;;3.00;68.35;100096.27;221438;1276;140782;-59
2022/01/25 12:06:37;;;;;;;49.30;27.50;;;;;;;3.03;68.42;100089.56;221253;1276;141554;-59
2022/01/25 12:16:56;;;;;;;48.50;26.60;;;;;;;3.22;68.71;100082.97;221161;1276;141430;-60
2022/01/25 12:22:09;;;;;;;48.30;27.30;;;;;;;3.31;68.31;100081.43;221177;1276;140428;-61
2022/01/25 12:27:27;;;;;;;45.60;26.70;;;;;;;3.28;68.32;100084.98;221337;1276;141103;-59
2022/01/25 12:32:36;;;;;;;46.40;26.00;;;;;;;3.26;68.24;100083.96;221234;1277;139784;-60
2022/01/25 12:37:44;;;;;;;51.40;29.50;;;;;;;3.21;68.15;100078.08;221213;1276;139574;-59
2022/01/25 12:42:47;;;;;;;53.70;29.50;;;;;;;3.14;68.16;100077.83;221271;1277;140283;-56
2022/01/25 12:47:59;;;;;;;54.50;29.90;;;;;;;3.10;68.27;100073.88;221327;1276;141509;-59
2022/01/25 12:53:05;;;;;;;52.40;29.00;;;;;;;3.13;68.41;100073.64;221362;1275;139871;-56
2022/01/25 12:58:08;;;;;;;;;;;;;;;3.15;68.45;100077.64;221141;1277;140494;-60
2022/01/25 13:03:11;;;;;;;54.60;30.90;;;;;;;3.15;68.47;100079.04;221460;1276;125703;-60
2022/01/25 13:08:19;;;;;;;47.60;28.10;;;;;;;3.15;68.46;100076.95;221119;1277;140506;-60
2022/01/25 13:13:43;;;;;;;54.10;30.80;;;;;;;3.12;68.47;100075.94;221389;1276;140671;-58
2022/01/25 13:18:48;;;;;;;56.40;30.20;;;;;;;3.10;68.37;100070.01;221297;1277;140613;-61
2022/01/25 13:23:53;;;;;;;55.70;30.30;;;;;;;3.14;68.55;100069.59;221276;1277;140775;-60
2022/01/25 13:30:38;;;;;;;52.10;29.70;;;;;;;3.20;68.45;100070.90;221191;1277;141124;-60
2022/01/25 13:34:22;;;;;;;52.10;29.90;;;;;;;3.19;68.70;100066.01;221166;1277;141436;-60
2022/01/25 13:39:26;;;;;;;53.80;30.70;;;;;;;3.22;68.67;100071.04;221253;1277;139796;-61
2022/01/25 13:49:51;;;;;;;52.80;29.90;;;;;;;3.28;68.57;100076.38;221329;1277;139444;-60
2022/01/25 13:55:07;;;;;;;63.60;33.80;;;;;;;3.28;68.57;100072.88;221387;1276;140298;-60
2022/01/25 14:00:11;;;;;;;57.80;32.80;;;;;;;3.30;68.58;100073.20;221169;1277;142184;-61
2022/01/25 14:05:14;;;;;;;54.90;31.60;;;;;;;3.35;68.82;100079.78;221244;1276;140447;-60
2022/01/25 14:10:24;;;;;;;55.00;32.60;;;;;;;3.44;68.81;100078.06;221364;1275;139641;-59
2022/01/25 14:26:11;;;;;;;55.10;31.20;;;;;;;3.50;68.64;100073.76;221108;1276;139791;-60
2022/01/25 14:31:20;;;;;;;53.80;29.70;;;;;;;3.51;68.36;100075.84;221326;1276;139682;-61
2022/01/25 14:36:26;;;;;;;58.40;31.80;;;;;;;3.48;68.51;100077.29;221307;1275;141027;-60
2022/01/25 14:41:32;;;;;;;58.80;31.10;;;;;;;3.49;68.50;100073.77;221274;1276;141797;-60
2022/01/25 14:46:36;;;;;;;;;;;;;;;3.53;68.42;100077.73;221322;1277;140184;-60
2022/01/25 14:51:44;;;;;;;61.00;32.90;;;;;;;3.56;68.63;100079.79;221194;1275;128031;-59
2022/01/25 14:56:55;;;;;;;63.90;33.70;;;;;;;3.70;68.99;100086.06;220967;1275;141975;-61
2022/01/25 15:02:00;;;;;;;60.30;33.40;;;;;;;3.80;68.68;100089.73;221120;1274;141191;-62
2022/01/25 15:07:17;;;;;;;216.80;127.60;;;;;;;3.75;68.31;100092.81;221264;1277;139228;-61
2022/01/25 15:12:25;;;;;;;65.60;35.70;;;;;;;3.91;68.97;100089.01;221213;1274;141047;-62
2022/01/25 15:17:28;;;;;;;67.70;34.30;;;;;;;3.96;68.41;100086.64;220993;1276;141460;-62
2022/01/25 15:22:32;;;;;;;68.80;34.30;;;;;;;3.82;68.02;100092.16;221194;1274;140908;-60
2022/01/25 15:27:35;;;;;;;69.70;34.80;;;;;;;3.65;68.13;100094.73;221248;1276;140523;-60
2022/01/25 15:32:38;;;;;;;71.00;34.30;;;;;;;3.51;68.16;100089.36;221263;1276;139202;-60
2022/01/25 15:37:44;;;;;;;69.70;35.50;;;;;;;3.42;68.42;100091.61;221320;1275;140076;-60
2022/01/25 15:42:47;;;;;;;72.40;36.20;;;;;;;3.33;68.47;100082.45;221165;1274;140837;-59
2022/01/25 15:47:50;;;;;;;69.10;33.80;;;;;;;3.27;68.59;100080.61;221340;1276;141360;-60
2022/01/25 15:52:53;;;;;;;70.10;35.20;;;;;;;3.24;68.68;100077.14;221243;1276;140250;-59
2022/01/25 15:57:56;;;;;;;67.20;33.50;;;;;;;3.17;69.00;100071.30;221235;1274;140410;-60
2022/01/25 16:03:00;;;;;;;67.80;32.90;;;;;;;3.12;69.12;100079.45;221236;1275;139931;-60
2022/01/25 16:08:03;;;;;;;68.60;33.10;;;;;;;3.07;69.01;100081.79;221035;1275;195925;-60
2022/01/25 16:13:06;;;;;;;84.50;40.60;;;;;;;3.12;69.61;100077.15;221339;1275;139814;-59
2022/01/25 16:18:09;;;;;;;67.80;33.00;;;;;;;3.29;69.37;100076.55;221246;1275;141205;-60
2022/01/25 16:23:13;;;;;;;61.60;31.40;;;;;;;3.26;69.16;100075.55;221191;1274;140338;-60
2022/01/25 16:28:16;;;;;;;57.00;31.00;;;;;;;3.25;69.24;100083.64;221227;1276;139791;-59
2022/01/25 16:33:19;;;;;;;60.40;31.70;;;;;;;3.22;69.23;100093.48;221296;1276;139399;-61
2022/01/25 16:38:22;;;;;;;52.00;29.80;;;;;;;3.21;69.00;100094.38;221192;1276;140453;-59
2022/01/25 16:43:25;;;;;;;60.80;30.70;;;;;;;3.16;69.10;100094.64;221127;1276;142114;-59
2022/01/25 16:48:28;;;;;;;65.00;35.80;;;;;;;3.12;69.08;100095.39;221067;1276;140954;-61
2022/01/25 16:53:32;;;;;;;55.20;29.50;;;;;;;3.12;69.21;100094.69;221214;1277;140553;-60
2022/01/25 16:58:35;;;;;;;53.80;29.20;;;;;;;3.15;69.22;100102.36;221199;1276;140290;-60
2022/01/25 17:03:38;;;;;;;59.40;33.20;;;;;;;3.12;69.17;100099.61;221286;1274;140916;-60
2022/01/25 17:08:41;;;;;;;67.30;35.70;;;;;;;3.10;69.22;100105.60;221198;1274;138897;-60
2022/01/25 17:13:45;;;;;;;328.30;191.90;;;;;;;3.07;69.26;100104.41;221274;1275;140984;-59
2022/01/25 17:18:50;;;;;;;64.60;34.10;;;;;;;3.16;69.75;100104.11;221148;1276;139961;-60
2022/01/25 17:24:13;;;;;;;65.70;34.00;;;;;;;3.19;69.53;100098.98;221205;1276;140087;-61
2022/01/25 17:29:16;;;;;;;63.70;33.20;;;;;;;3.16;69.43;100103.77;221188;1276;140084;-60
2022/01/25 17:34:20;;;;;;;62.90;34.40;;;;;;;3.13;69.64;100101.53;221263;1275;141372;-60
2022/01/25 17:39:23;;;;;;;147.20;84.30;;;;;;;3.08;69.60;100104.23;221068;1276;139511;-62
2022/01/25 17:44:26;;;;;;;65.90;34.00;;;;;;;3.12;69.91;100101.20;221239;1275;139784;-60
2022/01/25 17:49:29;;;;;;;58.70;31.90;;;;;;;3.08;69.55;100103.68;221249;1275;140483;-61
2022/01/25 17:54:33;;;;;;;59.40;32.30;;;;;;;3.03;69.74;100103.77;221184;1276;140587;-61
2022/01/25 17:59:36;;;;;;;57.90;30.70;;;;;;;3.02;69.87;100099.23;221011;1276;140301;-61
2022/01/25 18:04:39;;;;;;;57.30;32.90;;;;;;;3.09;70.33;100101.57;221093;1276;139790;-60
2022/01/25 18:09:44;;;;;;;58.90;30.70;;;;;;;3.15;70.25;100100.61;221212;1274;139385;-61
2022/01/25 18:14:47;;;;;;;60.00;32.30;;;;;;;3.07;69.98;100097.92;221313;1276;142373;-61
2022/01/25 18:19:51;;;;;;;62.40;33.70;;;;;;;2.99;69.94;100098.03;221204;1276;142441;-61
2022/01/25 18:25:06;;;;;;;65.30;35.40;;;;;;;2.97;70.04;100096.14;221317;1275;139630;-62
2022/01/25 18:30:10;;;;;;;69.10;35.20;;;;;;;2.94;70.22;100088.64;221076;1275;140482;-61
2022/01/25 18:35:13;;;;;;;73.80;37.90;;;;;;;2.91;70.29;100091.14;221327;1276;139630;-60
2022/01/25 18:40:16;;;;;;;75.30;38.50;;;;;;;2.86;70.41;100093.14;221240;1275;139644;-61
2022/01/25 18:45:19;;;;;;;73.70;37.60;;;;;;;2.87;70.39;100095.73;221176;1275;140199;-60
2022/01/25 18:50:22;;;;;;;71.10;36.50;;;;;;;2.92;70.50;100095.34;221059;1276;139683;-60
2022/01/25 18:55:26;;;;;;;74.90;38.40;;;;;;;2.90;70.48;100092.02;221254;1276;140700;-61
2022/01/25 19:00:30;;;;;;;79.00;40.70;;;;;;;2.98;71.01;100093.32;221005;1276;140865;-62
2022/01/25 19:05:35;;;;;;;63.70;31.90;;;;;;;3.05;70.79;100092.16;221114;1274;139729;-61
2022/01/25 19:10:38;;;;;;;70.40;36.50;;;;;;;2.99;70.63;100091.02;220938;1276;141829;-62
2022/01/25 19:15:42;;;;;;;73.10;37.90;;;;;;;2.94;70.59;100093.20;221277;1275;139791;-62
2022/01/25 19:20:45;;;;;;;72.60;38.80;;;;;;;2.90;70.86;100095.89;221242;1276;139400;-63
2022/01/25 19:25:48;;;;;;;71.00;36.10;;;;;;;2.82;70.81;100090.38;221238;1276;139555;-62
2022/01/25 19:30:51;;;;;;;74.20;39.60;;;;;;;2.78;71.01;100088.52;221146;1276;141061;-62
2022/01/25 19:35:55;;;;;;;362.70;227.90;;;;;;;2.81;71.27;100090.75;221049;1274;142252;-61
2022/01/25 19:41:01;;;;;;;76.80;39.80;;;;;;;3.11;71.73;100085.94;221144;1274;139753;-62
2022/01/25 19:46:04;;;;;;;72.20;38.20;;;;;;;3.11;71.34;100085.41;221296;1276;139952;-61
2022/01/25 19:51:08;;;;;;;69.00;38.60;;;;;;;3.04;71.17;100083.76;221268;1276;139344;-63
2022/01/25 19:56:12;;;;;;;71.10;38.10;;;;;;;2.96;70.98;100078.09;221114;1275;140904;-63
2022/01/25 20:01:16;;;;;;;68.70;37.10;;;;;;;2.91;71.04;100079.75;221129;1277;139372;-61
2022/01/25 20:06:20;;;;;;;49.40;25.60;;;;;;;2.87;71.34;100083.13;221289;1276;140369;-62
2022/01/25 20:11:29;;;;;;;65.80;36.60;;;;;;;2.87;71.21;100084.19;221298;1276;139954;-64
2022/01/25 20:16:35;;;;;;;69.20;36.20;;;;;;;2.88;71.34;100084.17;221194;1275;140483;-62
2022/01/25 20:21:44;;;;;;;68.90;36.80;;;;;;;2.88;71.39;100084.35;221291;1274;139627;-62
2022/01/25 20:26:53;;;;;;;67.40;37.80;;;;;;;2.88;71.38;100081.89;221213;1276;139821;-61
2022/01/25 20:31:56;;;;;;;66.30;37.10;;;;;;;2.85;71.37;100083.33;221211;1276;140008;-62
2022/01/25 20:37:06;;;;;;;69.40;37.40;;;;;;;2.84;71.52;100081.93;221238;1276;141134;-60
2022/01/25 20:42:09;;;;;;;65.30;33.40;;;;;;;2.85;71.55;100086.14;221026;1275;140172;-61
2022/01/25 20:47:12;;;;;;;62.50;34.80;;;;;;;2.84;71.58;100090.87;221207;1276;141285;-61
2022/01/25 20:52:15;;;;;;;64.80;35.00;;;;;;;2.86;71.52;100088.92;221225;1276;139580;-60
2022/01/25 20:57:18;;;;;;;67.40;35.10;;;;;;;2.87;71.66;100088.75;221225;1274;139927;-61
2022/01/25 21:02:34;;;;;;;66.70;35.40;;;;;;;2.87;71.52;100094.52;221281;1275;139677;-59
2022/01/25 21:07:38;;;;;;;65.80;36.00;;;;;;;2.88;71.61;100085.56;221247;1276;139676;-60
2022/01/25 21:12:41;;;;;;;69.00;36.60;;;;;;;2.93;71.75;100079.38;221203;1275;139879;-59
2022/01/25 21:17:44;;;;;;;59.80;33.80;;;;;;;3.02;71.98;100069.07;221073;1276;139834;-60
2022/01/25 21:22:47;;;;;;;64.00;35.90;;;;;;;2.98;71.72;100066.68;221179;1275;139408;-64
2022/01/25 21:27:50;;;;;;;64.40;33.10;;;;;;;2.94;71.91;100072.00;221171;1277;139717;-60
2022/01/25 21:32:53;;;;;;;61.40;33.50;;;;;;;2.88;71.61;100076.63;221092;1276;139832;-59
2022/01/25 21:37:58;;;;;;;68.00;38.00;;;;;;;2.87;71.60;100072.61;221037;1276;141805;-60
2022/01/25 21:43:18;;;;;;;58.80;32.10;;;;;;;2.88;71.86;100063.84;221225;1275;140063;-62
2022/01/25 21:48:21;;;;;;;59.10;30.30;;;;;;;2.89;71.87;100059.96;221077;1276;139089;-61
2022/01/25 21:53:26;;;;;;;64.90;34.50;;;;;;;2.87;71.87;100050.36;221084;1276;140614;-62
2022/01/25 21:58:29;;;;;;;61.30;32.20;;;;;;;2.83;71.90;100050.08;221234;1275;139917;-63
2022/01/25 22:03:36;;;;;;;64.40;33.80;;;;;;;2.81;71.93;100062.02;221142;1276;140276;-60
2022/01/25 22:08:43;;;;;;;59.30;31.80;;;;;;;2.85;71.81;100066.16;221131;1275;139836;-61
2022/01/25 22:13:57;;;;;;;65.00;32.70;;;;;;;2.88;71.92;100062.95;221369;1275;140019;-59
2022/01/25 22:19:00;;;;;;;56.50;31.70;;;;;;;2.91;72.06;100063.27;221156;1275;140721;-61
2022/01/25 22:24:03;;;;;;;57.50;30.60;;;;;;;2.92;72.10;100060.63;221177;1275;139682;-61
2022/01/25 22:29:06;;;;;;;53.60;30.00;;;;;;;2.90;71.93;100056.09;221223;1275;140898;-61
2022/01/25 22:34:10;;;;;;;56.00;31.10;;;;;;;2.87;71.96;100057.70;220826;1276;139828;-62
2022/01/25 22:39:15;;;;;;;56.40;30.00;;;;;;;2.88;71.88;100052.62;221070;1276;143137;-59
2022/01/25 22:44:19;;;;;;;58.30;31.20;;;;;;;2.88;72.05;100049.45;221113;1276;140939;-61
2022/01/25 22:54:44;;;;;;;55.90;31.10;;;;;;;2.88;72.07;100033.88;221276;1275;140561;-61
2022/01/25 22:59:47;;;;;;;54.30;28.90;;;;;;;2.81;71.98;100033.09;221213;1276;139765;-60
2022/01/25 23:04:55;;;;;;;59.50;33.00;;;;;;;2.79;72.00;100030.49;221183;1275;140126;-61
2022/01/25 23:09:59;;;;;;;59.20;31.20;;;;;;;2.82;72.10;100036.76;221219;1277;139933;-60
2022/01/25 23:15:04;;;;;;;51.20;28.50;;;;;;;2.87;72.36;100036.34;221285;1275;140429;-59
2022/01/25 23:20:18;;;;;;;55.40;30.80;;;;;;;2.92;72.29;100036.10;221308;1275;139748;-58
2022/01/25 23:25:29;;;;;;;52.20;29.90;;;;;;;2.95;72.44;100030.95;221057;1275;139886;-59
2022/01/25 23:30:49;;;;;;;53.30;30.00;;;;;;;2.97;72.22;100023.73;220809;1278;139449;-59
2022/01/25 23:36:02;;;;;;;61.30;33.40;;;;;;;2.99;72.27;100021.80;220784;1277;139667;-60
2022/01/25 23:41:13;;;;;;;54.70;30.10;;;;;;;3.03;72.36;100018.92;221141;1277;140954;-59
2022/01/25 23:46:23;;;;;;;50.90;28.50;;;;;;;3.10;72.19;100012.49;221123;1276;140098;-60
